Time;durP1;ratioP1;P1;durP2;ratioP2;P2;SDS_P1;SDS_P2;PMS_P1;PMS_P2;Temp;Humidity;BMP_temperature;BMP_pressure;BME280_temperature;BME280_humidity;BME280_pressure;Samples;Min_cycle;Max_cycle;Signal;HPM_P1;HPM_P2
2021/11/22 00:00:33;;;;;;;;;;;23.50;46.50;;;;;;1527167;77;795;-64
2021/11/22 00:02:35;;;;;;;;;;;23.50;46.50;;;;;;1529834;76;2055;-64
2021/11/22 00:04:37;;;;;;;;;;;23.50;46.50;;;;;;1531029;76;809;-64
2021/11/22 00:06:39;;;;;;;;;;;23.50;46.50;;;;;;1534411;77;1132;-65
2021/11/22 00:08:41;;;;;;;;;;;23.50;46.50;;;;;;1543587;76;742;-65
2021/11/22 00:10:43;;;;;;;;;;;23.50;46.50;;;;;;1526242;76;793;-64
2021/11/22 00:12:45;;;;;;;;;;;23.50;46.50;;;;;;1538534;77;1935;-63
2021/11/22 00:14:47;;;;;;;;;;;23.50;46.60;;;;;;1532076;75;738;-60
2021/11/22 00:16:49;;;;;;;;;;;23.50;46.50;;;;;;1531200;77;1141;-64
2021/11/22 00:18:51;;;;;;;;;;;23.50;46.60;;;;;;1525422;77;729;-64
2021/11/22 00:20:53;;;;;;;;;;;23.40;46.50;;;;;;1522392;76;743;-64
2021/11/22 00:22:55;;;;;;;;;;;23.40;46.50;;;;;;1534182;77;755;-64
2021/11/22 00:24:57;;;;;;;;;;;23.50;46.60;;;;;;1534623;76;786;-63
2021/11/22 00:26:59;;;;;;;;;;;23.50;46.60;;;;;;1534439;77;1141;-64
2021/11/22 00:29:01;;;;;;;;;;;23.50;46.60;;;;;;1533085;76;635;-64
2021/11/22 00:31:03;;;;;;;;;;;23.50;46.60;;;;;;1530919;76;717;-64
2021/11/22 00:33:05;;;;;;;;;;;23.50;46.60;;;;;;1530611;76;1952;-64
2021/11/22 00:35:07;;;;;;;;;;;23.50;46.60;;;;;;1535635;76;666;-63
2021/11/22 00:37:14;;;;;;;;;;;23.50;46.60;;;;;;1535829;75;1126;-63
2021/11/22 00:39:13;;;;;;;;;;;23.50;46.60;;;;;;1529823;76;1639;-63
2021/11/22 00:41:15;;;;;;;;;;;23.40;46.50;;;;;;1534249;76;658;-63
2021/11/22 00:43:19;;;;;;;;;;;23.50;46.60;;;;;;1534812;76;814;-64
2021/11/22 00:45:21;;;;;;;;;;;23.50;46.60;;;;;;1525780;76;858;-64
2021/11/22 00:47:22;;;;;;;;;;;23.50;46.70;;;;;;1530899;76;1211;-60
2021/11/22 00:49:24;;;;;;;;;;;23.50;46.60;;;;;;1529119;76;786;-64
2021/11/22 00:51:26;;;;;;;;;;;23.50;46.70;;;;;;1531005;77;1940;-63
2021/11/22 00:53:32;;;;;;;;;;;23.50;46.60;;;;;;1530143;77;791;-64
2021/11/22 00:55:34;;;;;;;;;;;23.50;46.60;;;;;;1540651;76;798;-65
2021/11/22 00:57:36;;;;;;;;;;;23.40;46.40;;;;;;1534399;75;1089;-64
2021/11/22 00:59:37;;;;;;;;;;;23.40;46.40;;;;;;1530301;76;792;-63
2021/11/22 01:01:39;;;;;;;;;;;23.50;46.50;;;;;;1526334;76;783;-65
2021/11/22 01:03:41;;;;;;;;;;;23.40;46.30;;;;;;1534637;75;797;-64
2021/11/22 01:05:43;;;;;;;;;;;23.50;46.50;;;;;;1541457;77;817;-64
2021/11/22 01:07:45;;;;;;;;;;;23.50;46.50;;;;;;1525862;75;1176;-65
2021/11/22 01:09:47;;;;;;;;;;;23.50;46.50;;;;;;1542139;77;879;-65
2021/11/22 01:11:49;;;;;;;;;;;23.50;46.40;;;;;;1525808;76;1941;-65
2021/11/22 01:13:51;;;;;;;;;;;23.40;46.30;;;;;;1535022;75;735;-66
2021/11/22 01:15:53;;;;;;;;;;;23.40;46.30;;;;;;1533403;75;729;-64
2021/11/22 01:17:54;;;;;;;;;;;23.40;46.30;;;;;;1528742;75;1047;-63
2021/11/22 01:19:56;;;;;;;;;;;23.40;46.30;;;;;;1522744;76;866;-63
2021/11/22 01:21:58;;;;;;;;;;;23.40;46.40;;;;;;1527438;77;731;-63
2021/11/22 01:24:00;;;;;;;;;;;23.40;46.40;;;;;;1526970;76;800;-63
2021/11/22 01:26:02;;;;;;;;;;;23.40;46.50;;;;;;1532820;77;681;-62
2021/11/22 01:28:04;;;;;;;;;;;23.50;46.50;;;;;;1528967;75;1121;-65
2021/11/22 01:30:08;;;;;;;;;;;23.50;46.50;;;;;;1528894;76;822;-65
2021/11/22 01:32:10;;;;;;;;;;;23.40;46.40;;;;;;1528401;76;1918;-66
2021/11/22 01:34:12;;;;;;;;;;;23.40;46.40;;;;;;1526026;76;750;-64
2021/11/22 01:36:14;;;;;;;;;;;23.40;46.40;;;;;;1530103;75;1120;-64
2021/11/22 01:38:16;;;;;;;;;;;23.40;46.50;;;;;;1538194;77;832;-62
2021/11/22 01:40:19;;;;;;;;;;;23.40;46.50;;;;;;1525955;76;733;-62
2021/11/22 01:42:21;;;;;;;;;;;23.40;46.40;;;;;;1533894;77;710;-65
2021/11/22 01:44:23;;;;;;;;;;;23.40;46.40;;;;;;1534728;77;928;-66
2021/11/22 01:46:26;;;;;;;;;;;23.40;46.50;;;;;;1537393;75;1127;-64
2021/11/22 01:48:28;;;;;;;;;;;23.40;46.50;;;;;;1543858;75;820;-63
2021/11/22 01:50:30;;;;;;;;;;;23.40;46.70;;;;;;1532914;76;737;-63
2021/11/22 01:52:32;;;;;;;;;;;23.40;46.70;;;;;;1535663;77;1907;-64
2021/11/22 01:54:34;;;;;;;;;;;23.40;46.70;;;;;;1541340;76;701;-63
2021/11/22 01:56:36;;;;;;;;;;;23.40;46.80;;;;;;1533987;77;1161;-63
2021/11/22 01:58:38;;;;;;;;;;;23.40;46.80;;;;;;1534310;76;1112;-62
2021/11/22 02:00:44;;;;;;;;;;;23.40;46.80;;;;;;1538148;77;731;-64
2021/11/22 02:02:46;;;;;;;;;;;23.40;46.80;;;;;;1534508;77;740;-63
2021/11/22 02:04:48;;;;;;;;;;;23.40;46.80;;;;;;1532253;77;744;-65
2021/11/22 02:06:50;;;;;;;;;;;23.30;46.90;;;;;;1527106;75;1193;-63
2021/11/22 02:08:52;;;;;;;;;;;23.40;46.90;;;;;;1536388;77;728;-62
2021/11/22 02:10:54;;;;;;;;;;;23.40;47.00;;;;;;1524812;77;817;-63
2021/11/22 02:12:56;;;;;;;;;;;23.40;46.80;;;;;;1538340;77;1931;-63
2021/11/22 02:14:58;;;;;;;;;;;23.30;46.80;;;;;;1538442;77;714;-62
2021/11/22 02:17:01;;;;;;;;;;;23.40;46.80;;;;;;1537575;75;1172;-63
2021/11/22 02:19:03;;;;;;;;;;;23.40;46.80;;;;;;1535349;77;695;-65
2021/11/22 02:21:05;;;;;;;;;;;23.30;46.80;;;;;;1531184;77;715;-64
2021/11/22 02:23:09;;;;;;;;;;;23.40;46.80;;;;;;1537047;76;731;-64
2021/11/22 02:25:11;;;;;;;;;;;23.40;46.80;;;;;;1531307;77;694;-63
2021/11/22 02:27:13;;;;;;;;;;;23.40;46.80;;;;;;1542990;75;1094;-62
2021/11/22 02:29:14;;;;;;;;;;;23.40;46.80;;;;;;1538646;77;790;-63
2021/11/22 02:31:16;;;;;;;;;;;23.40;46.90;;;;;;1538163;77;740;-63
2021/11/22 02:33:19;;;;;;;;;;;23.40;46.80;;;;;;1535094;77;1939;-62
2021/11/22 02:35:21;;;;;;;;;;;23.40;46.80;;;;;;1536013;77;773;-63
2021/11/22 02:37:23;;;;;;;;;;;23.40;46.80;;;;;;1541873;75;1143;-63
2021/11/22 02:39:25;;;;;;;;;;;23.50;47.00;;;;;;1537746;76;803;-63
2021/11/22 02:41:27;;;;;;;;;;;23.40;46.90;;;;;;1543038;76;808;-61
2021/11/22 02:43:30;;;;;;;;;;;23.40;46.80;;;;;;1534237;76;749;-63
2021/11/22 02:45:32;;;;;;;;;;;23.40;46.90;;;;;;1533689;76;736;-63
2021/11/22 02:47:33;;;;;;;;;;;23.40;46.90;;;;;;1542769;76;1142;-64
2021/11/22 02:49:35;;;;;;;;;;;23.40;46.80;;;;;;1547257;77;710;-63
2021/11/22 02:51:39;;;;;;;;;;;23.40;46.80;;;;;;1532494;77;656;-63
2021/11/22 02:53:41;;;;;;;;;;;23.40;46.80;;;;;;1540042;76;1929;-63
2021/11/22 02:55:44;;;;;;;;;;;23.40;46.80;;;;;;1537863;77;792;-63
2021/11/22 02:57:45;;;;;;;;;;;23.40;46.80;;;;;;1540109;75;1132;-63
2021/11/22 02:59:47;;;;;;;;;;;23.40;46.80;;;;;;1541704;76;823;-65
2021/11/22 03:01:49;;;;;;;;;;;23.40;46.80;;;;;;1529695;76;818;-63
2021/11/22 03:03:52;;;;;;;;;;;23.40;46.80;;;;;;1542575;76;739;-65
2021/11/22 03:06:04;;;;;;;;;;;23.40;46.80;;;;;;1532824;76;789;-65
2021/11/22 03:08:06;;;;;;;;;;;23.40;46.80;;;;;;1541460;77;1938;-65
2021/11/22 03:10:08;;;;;;;;;;;23.40;46.80;;;;;;1534272;76;794;-67
2021/11/22 03:12:11;;;;;;;;;;;23.40;46.80;;;;;;1533971;76;726;-65
2021/11/22 03:14:12;;;;;;;;;;;23.40;46.80;;;;;;1533646;77;1935;-65
2021/11/22 03:16:15;;;;;;;;;;;23.30;46.80;;;;;;1545987;75;1144;-64
2021/11/22 03:18:16;;;;;;;;;;;23.40;46.80;;;;;;1540128;76;764;-64
2021/11/22 03:20:19;;;;;;;;;;;23.40;46.80;;;;;;1546793;77;787;-63
2021/11/22 03:22:21;;;;;;;;;;;23.50;47.00;;;;;;1541860;77;714;-65
2021/11/22 03:24:22;;;;;;;;;;;23.40;46.80;;;;;;1541694;77;765;-64
2021/11/22 03:26:24;;;;;;;;;;;23.40;46.80;;;;;;1539588;75;1128;-64
2021/11/22 03:28:28;;;;;;;;;;;23.40;46.80;;;;;;1536347;77;789;-64
2021/11/22 03:30:29;;;;;;;;;;;23.40;46.80;;;;;;1534360;77;786;-64
2021/11/22 03:32:31;;;;;;;;;;;23.40;46.80;;;;;;1539480;76;1958;-65
2021/11/22 03:34:33;;;;;;;;;;;23.50;46.90;;;;;;1535703;77;782;-64
2021/11/22 03:36:35;;;;;;;;;;;23.50;46.90;;;;;;1530137;75;1128;-64
2021/11/22 03:38:37;;;;;;;;;;;23.50;46.90;;;;;;1530300;76;817;-65
2021/11/22 03:40:41;;;;;;;;;;;23.50;46.90;;;;;;1536119;76;621;-64
2021/11/22 03:43:11;;;;;;;;;;;23.50;46.80;;;;;;1534269;76;745;-64
2021/11/22 03:44:58;;;;;;;;;;;23.50;46.70;;;;;;1534027;77;1717;-64
2021/11/22 03:47:00;;;;;;;;;;;23.50;46.60;;;;;;1547321;75;1124;-65
2021/11/22 03:49:02;;;;;;;;;;;23.60;46.70;;;;;;1547501;77;789;-64
2021/11/22 03:51:04;;;;;;;;;;;23.50;46.60;;;;;;1546660;77;831;-63
2021/11/22 03:53:06;;;;;;;;;;;23.60;46.60;;;;;;1547464;75;1936;-64
2021/11/22 03:55:08;;;;;;;;;;;23.60;46.50;;;;;;1546992;77;751;-63
2021/11/22 03:57:10;;;;;;;;;;;23.60;46.50;;;;;;1565753;72;2051;-67
2021/11/22 03:59:12;;;;;;;;;;;23.60;46.50;;;;;;1594038;73;725;-67
2021/11/22 04:01:14;;;;;;;;;;;23.60;46.40;;;;;;1587936;73;734;-67
2021/11/22 04:03:16;;;;;;;;;;;23.70;46.50;;;;;;1590665;74;751;-65
2021/11/22 04:05:18;;;;;;;;;;;23.60;46.30;;;;;;1584949;74;769;-67
2021/11/22 04:07:20;;;;;;;;;;;23.60;46.30;;;;;;1580324;74;1210;-69
2021/11/22 04:09:22;;;;;;;;;;;23.60;46.30;;;;;;1574471;74;691;-69
2021/11/22 04:11:24;;;;;;;;;;;23.70;46.30;;;;;;1572190;75;709;-68
2021/11/22 04:13:26;;;;;;;;;;;23.70;46.30;;;;;;1575470;75;1930;-68
2021/11/22 04:15:27;;;;;;;;;;;23.70;46.30;;;;;;1572086;75;772;-68
2021/11/22 04:17:29;;;;;;;;;;;23.70;46.30;;;;;;1568530;74;1157;-68
2021/11/22 04:19:31;;;;;;;;;;;23.70;46.30;;;;;;1566031;75;758;-67
2021/11/22 04:21:33;;;;;;;;;;;23.70;46.30;;;;;;1572312;75;733;-68
2021/11/22 04:23:35;;;;;;;;;;;23.60;46.20;;;;;;1573512;75;767;-68
2021/11/22 04:25:37;;;;;;;;;;;23.70;46.30;;;;;;1553451;74;790;-68
2021/11/22 04:27:39;;;;;;;;;;;23.70;46.40;;;;;;1573273;74;1160;-69
2021/11/22 04:29:41;;;;;;;;;;;23.70;46.30;;;;;;1568793;75;734;-67
2021/11/22 04:31:42;;;;;;;;;;;23.70;46.30;;;;;;1572583;75;660;-66
2021/11/22 04:33:44;;;;;;;;;;;23.70;46.30;;;;;;1575214;74;1948;-67
2021/11/22 04:35:46;;;;;;;;;;;23.70;46.30;;;;;;1570468;75;793;-68
2021/11/22 04:37:48;;;;;;;;;;;23.70;46.30;;;;;;1560696;75;1150;-68
2021/11/22 04:39:50;;;;;;;;;;;23.70;46.30;;;;;;1571088;75;719;-68
2021/11/22 04:41:52;;;;;;;;;;;23.70;46.30;;;;;;1572725;74;692;-68
2021/11/22 04:43:54;;;;;;;;;;;23.70;46.30;;;;;;1577345;75;749;-68
2021/11/22 04:45:56;;;;;;;;;;;23.70;46.30;;;;;;1578776;75;729;-68
2021/11/22 04:47:58;;;;;;;;;;;23.70;46.30;;;;;;1570615;75;1129;-68
2021/11/22 04:50:00;;;;;;;;;;;23.70;46.30;;;;;;1572420;74;782;-68
2021/11/22 04:52:02;;;;;;;;;;;23.70;46.30;;;;;;1577638;75;769;-70
2021/11/22 04:54:04;;;;;;;;;;;23.70;46.30;;;;;;1575907;74;1947;-70
2021/11/22 04:56:06;;;;;;;;;;;23.60;46.20;;;;;;1574529;75;793;-70
2021/11/22 04:58:08;;;;;;;;;;;23.60;46.30;;;;;;1559159;75;1137;-68
2021/11/22 05:00:10;;;;;;;;;;;23.70;46.40;;;;;;1564040;75;719;-68
2021/11/22 05:02:12;;;;;;;;;;;23.70;46.40;;;;;;1563177;75;762;-67
2021/11/22 05:04:14;;;;;;;;;;;23.70;46.40;;;;;;1566607;75;741;-67
2021/11/22 05:06:16;;;;;;;;;;;23.70;46.40;;;;;;1566774;75;799;-66
2021/11/22 05:08:18;;;;;;;;;;;23.70;46.30;;;;;;1557662;75;1089;-67
2021/11/22 05:10:22;;;;;;;;;;;23.60;46.30;;;;;;1577942;75;773;-67
2021/11/22 05:12:23;;;;;;;;;;;23.70;46.40;;;;;;1576096;74;1644;-69
2021/11/22 05:14:26;;;;;;;;;;;23.70;46.50;;;;;;1574800;75;1946;-67
2021/11/22 05:16:28;;;;;;;;;;;23.60;46.30;;;;;;1563940;75;1157;-66
2021/11/22 05:18:30;;;;;;;;;;;23.60;46.30;;;;;;1571740;75;799;-69
2021/11/22 05:20:32;;;;;;;;;;;23.70;46.40;;;;;;1568377;74;782;-68
2021/11/22 05:22:34;;;;;;;;;;;23.70;46.40;;;;;;1570965;75;717;-67
2021/11/22 05:24:35;;;;;;;;;;;23.60;46.30;;;;;;1573324;74;745;-67
2021/11/22 05:26:37;;;;;;;;;;;23.60;46.30;;;;;;1560040;75;1153;-67
2021/11/22 05:28:39;;;;;;;;;;;23.70;46.40;;;;;;1571616;75;811;-68
2021/11/22 05:30:41;;;;;;;;;;;23.70;46.50;;;;;;1575298;75;764;-67
2021/11/22 05:32:43;;;;;;;;;;;23.70;46.40;;;;;;1578484;75;757;-67
2021/11/22 05:34:45;;;;;;;;;;;23.70;46.40;;;;;;1573437;74;1931;-63
2021/11/22 05:36:47;;;;;;;;;;;23.60;46.30;;;;;;1561222;75;1099;-67
2021/11/22 05:38:49;;;;;;;;;;;23.60;46.30;;;;;;1574518;75;729;-67
2021/11/22 05:40:51;;;;;;;;;;;23.70;46.40;;;;;;1567037;75;691;-67
2021/11/22 05:42:53;;;;;;;;;;;23.70;46.50;;;;;;1574433;75;724;-68
2021/11/22 05:44:54;;;;;;;;;;;23.60;46.30;;;;;;1567970;75;726;-68
2021/11/22 05:46:56;;;;;;;;;;;23.70;46.50;;;;;;1567425;75;1137;-68
2021/11/22 05:48:58;;;;;;;;;;;23.60;46.30;;;;;;1555557;74;722;-70
2021/11/22 05:51:01;;;;;;;;;;;23.60;46.40;;;;;;1573890;75;695;-69
2021/11/22 05:53:03;;;;;;;;;;;23.60;46.30;;;;;;1574050;75;672;-68
2021/11/22 05:55:08;;;;;;;;;;;23.60;46.30;;;;;;1571651;74;1918;-68
2021/11/22 05:57:10;;;;;;;;;;;23.70;46.50;;;;;;1571155;75;1153;-68
2021/11/22 05:59:12;;;;;;;;;;;23.60;46.40;;;;;;1550537;75;797;-67
2021/11/22 06:01:14;;;;;;;;;;;23.70;46.50;;;;;;1573877;75;725;-68
2021/11/22 06:03:16;;;;;;;;;;;23.60;46.30;;;;;;1568095;74;784;-66
2021/11/22 06:05:17;;;;;;;;;;;23.60;46.40;;;;;;1569189;75;700;-67
2021/11/22 06:07:19;;;;;;;;;;;23.60;46.40;;;;;;1574897;74;1171;-67
2021/11/22 06:09:21;;;;;;;;;;;23.60;46.30;;;;;;1573594;75;793;-68
2021/11/22 06:11:23;;;;;;;;;;;23.80;46.40;;;;;;1573715;74;768;-67
2021/11/22 06:13:25;;;;;;;;;;;23.70;46.30;;;;;;1574650;75;1936;-67
2021/11/22 06:15:27;;;;;;;;;;;23.70;46.30;;;;;;1570002;75;799;-67
2021/11/22 06:17:29;;;;;;;;;;;23.70;46.30;;;;;;1563527;74;1160;-67
2021/11/22 06:19:31;;;;;;;;;;;23.70;46.20;;;;;;1575118;74;763;-67
2021/11/22 06:21:33;;;;;;;;;;;23.70;46.30;;;;;;1573653;75;761;-67
2021/11/22 06:23:35;;;;;;;;;;;23.70;46.20;;;;;;1577379;75;733;-67
2021/11/22 06:25:36;;;;;;;;;;;23.80;46.10;;;;;;1576993;74;702;-67
2021/11/22 06:27:38;;;;;;;;;;;23.70;46.10;;;;;;1578682;74;1134;-68
2021/11/22 06:29:40;;;;;;;;;;;23.80;46.10;;;;;;1572544;75;812;-66
2021/11/22 06:31:42;;;;;;;;;;;23.70;46.10;;;;;;1571359;75;773;-65
2021/11/22 06:33:44;;;;;;;;;;;23.80;46.10;;;;;;1561537;75;1946;-67
2021/11/22 06:35:46;;;;;;;;;;;23.70;46.10;;;;;;1573966;74;694;-68
2021/11/22 06:37:48;;;;;;;;;;;23.90;46.30;;;;;;1569400;74;1131;-68
2021/11/22 06:39:50;;;;;;;;;;;23.70;46.10;;;;;;1575138;75;1111;-68
2021/11/22 06:41:52;;;;;;;;;;;23.80;46.10;;;;;;1578327;75;792;-67
2021/11/22 06:43:53;;;;;;;;;;;23.80;46.00;;;;;;1575292;74;666;-69
2021/11/22 06:45:55;;;;;;;;;;;23.90;46.10;;;;;;1563547;75;750;-69
2021/11/22 06:47:57;;;;;;;;;;;23.90;46.00;;;;;;1568274;74;1079;-66
2021/11/22 06:49:59;;;;;;;;;;;23.90;46.00;;;;;;1577744;75;781;-68
2021/11/22 06:52:01;;;;;;;;;;;23.80;46.00;;;;;;1572628;75;809;-67
2021/11/22 06:54:03;;;;;;;;;;;23.80;46.00;;;;;;1575520;74;1923;-67
2021/11/22 06:56:05;;;;;;;;;;;23.80;46.00;;;;;;1577104;75;761;-68
2021/11/22 06:58:07;;;;;;;;;;;23.80;46.10;;;;;;1573732;74;1150;-68
2021/11/22 07:00:09;;;;;;;;;;;23.80;46.10;;;;;;1573700;75;712;-68
2021/11/22 07:02:16;;;;;;;;;;;23.80;46.00;;;;;;1577245;75;680;-68
2021/11/22 07:04:15;;;;;;;;;;;23.90;46.10;;;;;;1569658;74;1598;-70
2021/11/22 07:06:17;;;;;;;;;;;23.90;46.00;;;;;;1572548;75;941;-67
2021/11/22 07:08:19;;;;;;;;;;;23.90;46.00;;;;;;1578588;74;1088;-70
2021/11/22 07:10:21;;;;;;;;;;;23.90;45.90;;;;;;1574735;75;781;-62
2021/11/22 07:12:23;;;;;;;;;;;23.90;45.80;;;;;;1570967;74;758;-71
2021/11/22 07:14:25;;;;;;;;;;;23.90;45.90;;;;;;1569306;74;1918;-67
2021/11/22 07:16:27;;;;;;;;;;;23.90;45.80;;;;;;1574394;74;1175;-67
2021/11/22 07:18:29;;;;;;;;;;;23.90;45.80;;;;;;1571600;74;728;-67
2021/11/22 07:20:31;;;;;;;;;;;23.90;45.80;;;;;;1573027;74;730;-64
2021/11/22 07:22:33;;;;;;;;;;;23.90;45.90;;;;;;1573037;74;780;-67
2021/11/22 07:24:36;;;;;;;;;;;23.90;46.00;;;;;;1576961;74;788;-67
2021/11/22 07:26:38;;;;;;;;;;;23.90;46.00;;;;;;1572533;74;1142;-66
2021/11/22 07:28:40;;;;;;;;;;;23.90;46.00;;;;;;1572573;74;777;-67
2021/11/22 07:30:42;;;;;;;;;;;23.80;45.90;;;;;;1571971;74;796;-67
2021/11/22 07:32:44;;;;;;;;;;;23.90;45.90;;;;;;1576629;74;743;-68
2021/11/22 07:34:45;;;;;;;;;;;23.90;45.90;;;;;;1571824;74;1942;-68
2021/11/22 07:36:47;;;;;;;;;;;23.80;45.90;;;;;;1576449;74;1144;-68
2021/11/22 07:38:49;;;;;;;;;;;23.70;45.90;;;;;;1572486;74;771;-68
2021/11/22 07:40:51;;;;;;;;;;;23.80;46.00;;;;;;1572109;74;776;-67
2021/11/22 07:42:53;;;;;;;;;;;23.80;46.00;;;;;;1576561;74;747;-69
2021/11/22 07:44:55;;;;;;;;;;;23.70;46.00;;;;;;1574466;74;723;-68
2021/11/22 07:46:58;;;;;;;;;;;23.70;46.00;;;;;;1574736;74;1133;-71
2021/11/22 07:49:00;;;;;;;;;;;23.70;46.00;;;;;;1572399;74;778;-67
2021/11/22 07:51:03;;;;;;;;;;;23.70;46.30;;;;;;1571656;74;1086;-71
2021/11/22 07:53:05;;;;;;;;;;;23.70;46.40;;;;;;1568980;74;813;-68
2021/11/22 07:55:07;;;;;;;;;;;23.70;46.40;;;;;;1574905;74;1950;-69
2021/11/22 07:57:09;;;;;;;;;;;23.70;46.60;;;;;;1570175;74;1176;-69
2021/11/22 07:59:11;;;;;;;;;;;23.70;46.70;;;;;;1575268;74;781;-69
2021/11/22 08:01:13;;;;;;;;;;;23.70;46.80;;;;;;1569567;74;697;-68
2021/11/22 08:03:15;;;;;;;;;;;23.70;46.70;;;;;;1575568;74;711;-69
2021/11/22 08:05:17;;;;;;;;;;;23.60;46.80;;;;;;1573783;74;760;-66
2021/11/22 08:07:21;;;;;;;;;;;23.70;46.90;;;;;;1563888;75;1169;-68
2021/11/22 08:09:34;;;;;;;;;;;23.80;46.80;;;;;;1570150;75;1472;-68
2021/11/22 08:11:44;;;;;;;;;;;23.80;47.00;;;;;;1567702;74;1694;-68
2021/11/22 08:13:39;;;;;;;;;;;23.80;46.70;;;;;;1570605;75;1612;-67
2021/11/22 08:15:41;;;;;;;;;;;23.80;46.70;;;;;;1573071;75;1946;-71
2021/11/22 08:17:43;;;;;;;;;;;23.90;46.60;;;;;;1572994;74;1199;-67
2021/11/22 08:19:45;;;;;;;;;;;23.90;46.50;;;;;;1575591;74;811;-68
2021/11/22 08:21:47;;;;;;;;;;;23.90;46.60;;;;;;1577676;75;809;-71
2021/11/22 08:23:48;;;;;;;;;;;23.90;46.80;;;;;;1569800;75;851;-66
2021/11/22 08:25:50;;;;;;;;;;;23.90;46.80;;;;;;1578064;74;734;-68
2021/11/22 08:27:54;;;;;;;;;;;23.90;46.80;;;;;;1570616;74;1153;-70
2021/11/22 08:30:00;;;;;;;;;;;23.90;46.80;;;;;;1567704;75;699;-68
2021/11/22 08:32:02;;;;;;;;;;;24.00;46.90;;;;;;1569650;74;1321;-67
2021/11/22 08:34:04;;;;;;;;;;;23.90;46.80;;;;;;1571715;74;688;-67
2021/11/22 08:36:06;;;;;;;;;;;23.90;46.80;;;;;;1571814;74;1942;-68
2021/11/22 08:38:09;;;;;;;;;;;23.80;47.20;;;;;;1574969;74;1111;-66
2021/11/22 08:40:11;;;;;;;;;;;23.90;47.30;;;;;;1571734;74;727;-69
2021/11/22 08:42:13;;;;;;;;;;;23.90;47.20;;;;;;1573429;74;826;-70
2021/11/22 08:44:15;;;;;;;;;;;23.90;47.50;;;;;;1563119;75;740;-64
2021/11/22 08:46:17;;;;;;;;;;;23.80;47.70;;;;;;1569190;74;781;-65
2021/11/22 08:48:21;;;;;;;;;;;23.80;47.80;;;;;;1571210;74;1187;-66
2021/11/22 08:50:23;;;;;;;;;;;24.00;47.60;;;;;;1570287;74;767;-65
2021/11/22 08:52:24;;;;;;;;;;;23.90;47.50;;;;;;1571684;74;719;-65
2021/11/22 08:54:26;;;;;;;;;;;24.00;47.30;;;;;;1573093;74;1955;-65
2021/11/22 08:56:28;;;;;;;;;;;24.00;47.10;;;;;;1573579;74;1135;-65
2021/11/22 08:58:30;;;;;;;;;;;24.00;47.10;;;;;;1571323;74;801;-65
2021/11/22 09:00:33;;;;;;;;;;;24.00;47.00;;;;;;1569699;74;789;-68
2021/11/22 09:02:35;;;;;;;;;;;24.00;47.00;;;;;;1570129;74;707;-65
2021/11/22 09:04:37;;;;;;;;;;;24.00;46.90;;;;;;1561451;74;840;-66
2021/11/22 09:06:39;;;;;;;;;;;23.90;46.80;;;;;;1576308;74;1150;-66
2021/11/22 09:08:41;;;;;;;;;;;23.90;46.80;;;;;;1566626;74;678;-65
2021/11/22 09:10:43;;;;;;;;;;;23.90;46.80;;;;;;1567207;74;783;-66
2021/11/22 09:12:44;;;;;;;;;;;23.90;46.80;;;;;;1573072;74;895;-66
2021/11/22 09:14:46;;;;;;;;;;;23.90;46.80;;;;;;1571992;75;1930;-65
2021/11/22 09:16:48;;;;;;;;;;;23.70;46.70;;;;;;1568210;75;1152;-65
2021/11/22 09:18:50;;;;;;;;;;;23.80;46.70;;;;;;1564517;75;707;-65
2021/11/22 09:20:53;;;;;;;;;;;23.80;46.80;;;;;;1575903;75;827;-65
2021/11/22 09:22:57;;;;;;;;;;;23.80;46.70;;;;;;1573798;74;673;-65
2021/11/22 09:24:58;;;;;;;;;;;23.80;46.70;;;;;;1571729;74;1694;-65
2021/11/22 09:27:00;;;;;;;;;;;23.80;46.70;;;;;;1573154;74;1157;-65
2021/11/22 09:29:02;;;;;;;;;;;23.70;46.70;;;;;;1574167;74;739;-65
2021/11/22 09:31:05;;;;;;;;;;;23.80;46.70;;;;;;1573492;74;783;-66
2021/11/22 09:33:10;;;;;;;;;;;23.80;46.70;;;;;;1514064;77;786;-66
2021/11/22 09:35:11;;;;;;;;;;;23.70;46.70;;;;;;1539062;77;1929;-65
2021/11/22 09:37:13;;;;;;;;;;;23.70;46.70;;;;;;1503622;78;1111;-65
2021/11/22 09:39:17;;;;;;;;;;;23.70;46.60;;;;;;1516592;78;786;-65
2021/11/22 09:41:19;;;;;;;;;;;23.70;46.70;;;;;;1501916;78;1704;-66
2021/11/22 09:43:21;;;;;;;;;;;23.70;46.70;;;;;;1542140;76;758;-65
2021/11/22 09:45:26;;;;;;;;;;;23.70;46.70;;;;;;1536761;76;729;-65
2021/11/22 09:47:28;;;;;;;;;;;23.70;46.70;;;;;;1538053;76;1683;-63
2021/11/22 09:49:30;;;;;;;;;;;23.70;46.60;;;;;;1539257;76;732;-65
2021/11/22 09:51:31;;;;;;;;;;;23.70;46.70;;;;;;1541017;76;701;-65
2021/11/22 09:53:34;;;;;;;;;;;23.70;46.70;;;;;;1535279;77;761;-66
2021/11/22 09:55:35;;;;;;;;;;;23.70;46.70;;;;;;1533531;76;1921;-65
2021/11/22 09:57:38;;;;;;;;;;;23.70;46.70;;;;;;1572880;71;3029;-68
2021/11/22 09:59:40;;;;;;;;;;;23.60;46.60;;;;;;1631798;72;668;-67
2021/11/22 10:01:42;;;;;;;;;;;23.70;46.70;;;;;;1620707;72;790;-67
2021/11/22 10:03:45;;;;;;;;;;;23.70;46.70;;;;;;1621203;72;774;-68
2021/11/22 10:05:47;;;;;;;;;;;23.60;46.30;;;;;;1613885;72;1669;-67
2021/11/22 10:07:59;;;;;;;;;;;23.60;46.30;;;;;;1612057;72;1176;-67
2021/11/22 10:10:02;;;;;;;;;;;23.70;46.40;;;;;;1609876;74;831;-67
2021/11/22 10:12:17;;;;;;;;;;;23.70;46.30;;;;;;1592927;74;926;-67
2021/11/22 10:14:21;;;;;;;;;;;23.60;46.30;;;;;;1602956;74;736;-68
2021/11/22 10:16:23;;;;;;;;;;;23.60;46.30;;;;;;1610926;73;1989;-68
2021/11/22 10:18:26;;;;;;;;;;;23.60;46.30;;;;;;1607265;74;1135;-68
2021/11/22 10:20:29;;;;;;;;;;;23.60;46.40;;;;;;1609971;74;764;-68
2021/11/22 10:22:31;;;;;;;;;;;23.60;46.40;;;;;;1612446;74;717;-68
2021/11/22 10:24:33;;;;;;;;;;;23.60;46.30;;;;;;1587002;75;1142;-68
2021/11/22 10:26:42;;;;;;;;;;;23.60;46.30;;;;;;1608875;74;590;-67
2021/11/22 10:28:48;;;;;;;;;;;23.60;46.40;;;;;;1604711;74;1138;-65
2021/11/22 10:30:53;;;;;;;;;;;23.60;46.50;;;;;;1610880;74;1663;-65
2021/11/22 10:32:56;;;;;;;;;;;23.60;46.50;;;;;;1609040;74;743;-68
2021/11/22 10:35:01;;;;;;;;;;;23.60;46.60;;;;;;1613801;74;1916;-69
2021/11/22 10:37:03;;;;;;;;;;;23.60;46.60;;;;;;1608673;73;1945;-65
2021/11/22 10:39:06;;;;;;;;;;;23.60;46.80;;;;;;1601451;74;692;-66
2021/11/22 10:41:08;;;;;;;;;;;23.60;46.60;;;;;;1603124;74;731;-66
2021/11/22 10:43:10;;;;;;;;;;;23.60;46.60;;;;;;1599189;74;733;-66
2021/11/22 10:45:22;;;;;;;;;;;23.60;46.70;;;;;;1609038;73;1038;-68
2021/11/22 10:47:25;;;;;;;;;;;23.60;46.70;;;;;;1613291;74;1432;-65
2021/11/22 10:51:47;;;;;;;;;;;23.60;46.80;;;;;;1613489;74;851;-68
2021/11/22 10:53:54;;;;;;;;;;;23.60;46.90;;;;;;1613357;74;775;-66
2021/11/22 10:55:55;;;;;;;;;;;23.60;47.00;;;;;;1607955;74;1941;-67
2021/11/22 10:58:00;;;;;;;;;;;23.60;47.10;;;;;;1607215;74;1138;-67
2021/11/22 11:00:01;;;;;;;;;;;23.60;47.10;;;;;;1608405;73;1699;-68
2021/11/22 11:02:03;;;;;;;;;;;23.60;47.10;;;;;;1612042;74;702;-65
2021/11/22 11:04:06;;;;;;;;;;;23.60;47.10;;;;;;1613231;74;736;-66
2021/11/22 11:06:08;;;;;;;;;;;23.60;47.20;;;;;;1612693;74;815;-66
2021/11/22 11:08:11;;;;;;;;;;;23.60;47.20;;;;;;1596219;74;1150;-66
2021/11/22 11:10:12;;;;;;;;;;;23.60;47.10;;;;;;1598667;74;700;-66
2021/11/22 11:12:15;;;;;;;;;;;23.60;47.20;;;;;;1578347;75;1463;-66
2021/11/22 11:14:17;;;;;;;;;;;23.60;47.20;;;;;;1607594;74;799;-65
2021/11/22 11:16:19;;;;;;;;;;;23.60;47.20;;;;;;1605674;74;1917;-67
2021/11/22 11:18:24;;;;;;;;;;;23.60;47.30;;;;;;1605838;74;1103;-65
2021/11/22 11:20:26;;;;;;;;;;;23.60;47.30;;;;;;1605153;74;848;-68
2021/11/22 11:22:28;;;;;;;;;;;23.60;47.30;;;;;;1606641;74;778;-67
2021/11/22 11:24:30;;;;;;;;;;;23.60;47.40;;;;;;1608280;74;814;-67
2021/11/22 11:26:32;;;;;;;;;;;23.60;47.40;;;;;;1599707;73;851;-68
2021/11/22 11:28:34;;;;;;;;;;;23.60;47.50;;;;;;1603607;74;1250;-70
2021/11/22 11:30:36;;;;;;;;;;;23.70;47.50;;;;;;1601256;74;682;-67
2021/11/22 11:32:38;;;;;;;;;;;23.70;47.50;;;;;;1605953;74;753;-68
2021/11/22 11:34:43;;;;;;;;;;;23.70;47.40;;;;;;1602576;74;893;-68
2021/11/22 11:36:56;;;;;;;;;;;23.70;47.40;;;;;;1604028;74;1932;-68
2021/11/22 11:39:11;;;;;;;;;;;23.70;47.40;;;;;;1603074;74;723;-68
2021/11/22 11:41:18;;;;;;;;;;;23.70;47.30;;;;;;1604010;74;1919;-69
2021/11/22 11:43:22;;;;;;;;;;;23.80;47.30;;;;;;1600783;74;1914;-70
2021/11/22 11:45:28;;;;;;;;;;;23.80;47.30;;;;;;1600947;74;836;-68
2021/11/22 11:47:33;;;;;;;;;;;23.80;47.30;;;;;;1604397;74;1144;-68
2021/11/22 11:49:35;;;;;;;;;;;23.80;47.50;;;;;;1602006;74;1156;-68
2021/11/22 11:51:39;;;;;;;;;;;23.80;47.50;;;;;;1605094;74;721;-71
2021/11/22 11:53:43;;;;;;;;;;;23.70;47.40;;;;;;1599969;74;1504;-67
2021/11/22 11:55:45;;;;;;;;;;;23.70;47.40;;;;;;1607391;74;1916;-66
2021/11/22 11:57:47;;;;;;;;;;;23.70;47.40;;;;;;1611507;74;1093;-66
2021/11/22 11:59:49;;;;;;;;;;;23.70;47.50;;;;;;1597386;74;793;-66
2021/11/22 12:01:59;;;;;;;;;;;23.70;47.40;;;;;;1600968;74;788;-67
2021/11/22 12:04:02;;;;;;;;;;;23.70;47.40;;;;;;1601994;74;770;-66
2021/11/22 12:06:05;;;;;;;;;;;23.70;47.50;;;;;;1601925;74;785;-67
2021/11/22 12:08:20;;;;;;;;;;;23.70;47.50;;;;;;1598363;74;1169;-68
2021/11/22 12:10:23;;;;;;;;;;;23.70;47.50;;;;;;1597859;74;704;-65
2021/11/22 12:12:26;;;;;;;;;;;23.60;47.30;;;;;;1598928;74;713;-60